Time;durP1;ratioP1;P1;durP2;ratioP2;P2;SDS_P1;SDS_P2;PMS_P1;PMS_P2;Temp;Humidity;BMP_temperature;BMP_pressure;BME280_temperature;BME280_humidity;BME280_pressure;Samples;Min_cycle;Max_cycle;Signal;HPM_P1;HPM_P2
2021/12/27 00:00:14;;;;;;;25.33;13.53;;;0.20;99.90;;;;;;5094883;28;20205;-89
2021/12/27 00:02:45;;;;;;;18.73;13.33;;;0.30;99.90;;;;;;5095255;28;20208;-89
2021/12/27 00:05:14;;;;;;;15.57;11.83;;;0.30;99.90;;;;;;5095362;28;20224;-89
2021/12/27 00:07:48;;;;;;;19.37;13.77;;;0.30;99.90;;;;;;5094909;28;20223;-89
2021/12/27 00:10:17;;;;;;;17.73;13.07;;;0.30;99.90;;;;;;5094511;28;20220;-89
2021/12/27 00:12:45;;;;;;;18.20;13.27;;;0.20;99.90;;;;;;5094539;28;20213;-89
2021/12/27 00:15:14;;;;;;;16.10;12.00;;;0.30;99.90;;;;;;5094751;28;20251;-89
2021/12/27 00:17:46;;;;;;;16.27;12.50;;;0.30;99.90;;;;;;5094829;28;20254;-89
2021/12/27 00:20:18;;;;;;;14.70;11.90;;;0.30;99.90;;;;;;5094177;28;20227;-89
2021/12/27 00:22:48;;;;;;;17.47;12.87;;;0.30;99.90;;;;;;5095147;28;20196;-89
2021/12/27 00:25:17;;;;;;;21.07;14.53;;;0.40;99.90;;;;;;5094837;28;20244;-89
2021/12/27 00:27:46;;;;;;;17.03;12.53;;;0.40;99.90;;;;;;5094153;28;20276;-89
2021/12/27 00:30:18;;;;;;;13.00;11.60;;;0.40;99.90;;;;;;5093978;28;20248;-89
2021/12/27 00:32:48;;;;;;;14.07;12.57;;;0.40;99.90;;;;;;5094616;28;20204;-89
2021/12/27 00:35:22;;;;;;;17.73;12.87;;;0.40;99.90;;;;;;5094467;28;20316;-89
2021/12/27 00:37:50;;;;;;;17.17;12.73;;;0.40;99.90;;;;;;5094728;28;20247;-89
2021/12/27 00:40:19;;;;;;;20.07;12.67;;;0.40;99.90;;;;;;5094035;28;20291;-89
2021/12/27 00:42:49;;;;;;;15.23;11.40;;;0.40;99.90;;;;;;5094488;28;20259;-89
2021/12/27 00:45:18;;;;;;;14.30;11.57;;;0.40;99.90;;;;;;5094210;28;20325;-89
2021/12/27 00:47:49;;;;;;;18.77;13.37;;;0.30;99.90;;;;;;5094556;28;20211;-90
2021/12/27 00:50:18;;;;;;;13.67;12.13;;;0.30;99.90;;;;;;5093340;28;20204;-90
2021/12/27 00:52:47;;;;;;;19.13;12.70;;;0.30;99.90;;;;;;5094633;28;20263;-90
2021/12/27 00:55:16;;;;;;;17.20;13.20;;;0.30;99.90;;;;;;5094073;28;20252;-90
2021/12/27 00:57:45;;;;;;;16.40;12.13;;;0.30;99.90;;;;;;5093939;28;20287;-90
2021/12/27 01:00:17;;;;;;;15.93;13.03;;;0.30;99.90;;;;;;5093548;28;20252;-89
2021/12/27 01:02:47;;;;;;;15.60;13.77;;;0.20;99.90;;;;;;5094070;28;20261;-90
2021/12/27 01:05:18;;;;;;;16.43;13.80;;;0.30;99.90;;;;;;5093916;28;20224;-90
2021/12/27 01:07:46;;;;;;;14.67;13.10;;;0.30;99.90;;;;;;5094013;28;20295;-90
2021/12/27 01:13:17;;;;;;;14.63;11.23;;;0.30;99.90;;;;;;5075880;28;20250;-89
2021/12/27 01:15:51;;;;;;;23.93;12.20;;;0.30;99.90;;;;;;5093622;28;20252;-89
2021/12/27 01:18:22;;;;;;;15.90;12.63;;;0.30;99.90;;;;;;5093769;28;20204;-92
2021/12/27 01:20:52;;;;;;;13.27;11.63;;;0.30;99.90;;;;;;5093451;28;20287;-89
2021/12/27 01:23:21;;;;;;;18.93;14.20;;;0.30;99.90;;;;;;5093733;28;20239;-83
2021/12/27 01:25:49;;;;;;;18.57;13.03;;;0.30;99.90;;;;;;5093332;28;20240;-83
2021/12/27 01:28:19;;;;;;;22.23;14.07;;;0.30;99.90;;;;;;5093455;28;20300;-83
2021/12/27 01:30:49;;;;;;;14.83;11.60;;;0.30;99.90;;;;;;5092131;28;20252;-83
2021/12/27 01:33:19;;;;;;;18.43;13.57;;;0.30;99.90;;;;;;5093768;28;20200;-83
2021/12/27 01:35:48;;;;;;;13.53;11.43;;;0.20;99.90;;;;;;5094100;28;20278;-83
2021/12/27 01:38:18;;;;;;;13.07;11.13;;;0.20;99.90;;;;;;5093933;28;20212;-83
2021/12/27 01:40:50;;;;;;;21.43;13.00;;;0.20;99.90;;;;;;5093044;28;20204;-83
2021/12/27 01:43:22;;;;;;;14.77;11.87;;;0.20;99.90;;;;;;5093696;28;20224;-83
2021/12/27 01:45:52;;;;;;;14.70;12.07;;;0.20;99.90;;;;;;5093232;28;20258;-83
2021/12/27 01:48:23;;;;;;;18.97;12.87;;;0.20;99.90;;;;;;5093778;28;20196;-83
2021/12/27 01:50:53;;;;;;;16.23;11.47;;;0.30;99.90;;;;;;5093254;28;20303;-83
2021/12/27 01:53:28;;;;;;;11.13;9.93;;;0.30;99.90;;;;;;5093413;28;20234;-83
2021/12/27 01:55:58;;;;;;;13.13;10.77;;;0.30;99.90;;;;;;5093316;28;20318;-89
2021/12/27 01:58:27;;;;;;;16.83;12.37;;;0.30;99.90;;;;;;5093185;28;20204;-89
2021/12/27 02:00:59;;;;;;;20.53;10.27;;;0.30;99.90;;;;;;5092910;28;20232;-90
2021/12/27 02:03:30;;;;;;;14.80;11.37;;;0.30;99.90;;;;;;5093428;28;20207;-82
2021/12/27 02:06:05;;;;;;;22.00;13.43;;;0.30;99.90;;;;;;5093189;28;20234;-85
2021/12/27 02:08:36;;;;;;;13.57;10.97;;;0.30;99.90;;;;;;5093192;28;20246;-85
2021/12/27 02:11:06;;;;;;;23.47;11.63;;;0.30;99.90;;;;;;5092718;28;20208;-85
2021/12/27 02:13:41;;;;;;;23.60;11.83;;;0.30;99.90;;;;;;5093103;28;20212;-85
2021/12/27 02:16:10;;;;;;;11.63;10.03;;;0.30;99.90;;;;;;5093272;28;20227;-85
2021/12/27 02:18:39;;;;;;;24.03;12.03;;;0.20;99.90;;;;;;5092698;28;20200;-85
2021/12/27 02:21:09;;;;;;;15.60;11.97;;;0.30;99.90;;;;;;5092756;28;20232;-85
2021/12/27 02:23:40;;;;;;;18.73;12.10;;;0.30;99.90;;;;;;5092851;28;20235;-85
2021/12/27 02:26:08;;;;;;;15.90;11.03;;;0.30;99.90;;;;;;5093008;28;20240;-85
2021/12/27 02:28:37;;;;;;;16.37;13.23;;;0.30;99.90;;;;;;5093231;28;20276;-85
2021/12/27 02:31:06;;;;;;;17.93;13.70;;;0.30;99.90;;;;;;5092573;28;20228;-85
2021/12/27 02:33:37;;;;;;;20.37;13.07;;;0.30;99.90;;;;;;5092714;28;20242;-92
2021/12/27 02:36:08;;;;;;;22.87;14.47;;;0.30;99.90;;;;;;5093190;28;20232;-92
2021/12/27 02:38:39;;;;;;;17.83;13.20;;;0.30;99.90;;;;;;5093118;28;20238;-92
2021/12/27 02:41:08;;;;;;;16.70;12.07;;;0.30;99.90;;;;;;5092828;28;20223;-92
2021/12/27 02:43:39;;;;;;;18.20;11.37;;;0.30;99.90;;;;;;5093359;28;20234;-92
2021/12/27 02:46:09;;;;;;;17.67;12.97;;;0.30;99.90;;;;;;5092889;28;20255;-92
2021/12/27 02:48:39;;;;;;;14.77;11.90;;;0.30;99.90;;;;;;5092906;28;20208;-91
2021/12/27 02:51:09;;;;;;;13.37;11.70;;;0.30;99.90;;;;;;5092932;28;20296;-92
2021/12/27 02:53:38;;;;;;;12.63;11.27;;;0.30;99.90;;;;;;5093121;28;20232;-92
2021/12/27 02:56:07;;;;;;;16.33;11.83;;;0.30;99.90;;;;;;5093424;28;20244;-92
2021/12/27 02:58:36;;;;;;;19.60;12.30;;;0.30;99.90;;;;;;5092690;28;20247;-92
2021/12/27 03:01:07;;;;;;;14.43;12.53;;;0.30;99.90;;;;;;5093255;28;20287;-94
2021/12/27 03:03:36;;;;;;;14.60;11.97;;;0.30;99.90;;;;;;5093037;28;20208;-92
2021/12/27 03:06:07;;;;;;;19.00;12.40;;;0.30;99.90;;;;;;5092567;28;20303;-92
2021/12/27 03:08:37;;;;;;;18.73;12.87;;;0.30;99.90;;;;;;5092991;28;20325;-92
2021/12/27 03:11:07;;;;;;;12.83;11.00;;;0.30;99.90;;;;;;5092830;28;20204;-92
2021/12/27 03:13:37;;;;;;;13.50;11.10;;;0.30;99.90;;;;;;5092572;28;20260;-92
2021/12/27 03:16:07;;;;;;;17.97;12.93;;;0.30;99.90;;;;;;5092442;28;20224;-92
2021/12/27 03:18:37;;;;;;;14.03;10.40;;;0.30;99.90;;;;;;5092380;28;20228;-91
2021/12/27 03:21:06;;;;;;;13.40;11.33;;;0.30;99.90;;;;;;5092238;28;20292;-91
2021/12/27 03:23:37;;;;;;;16.20;12.07;;;0.20;99.90;;;;;;5092608;28;20279;-91
2021/12/27 03:26:06;;;;;;;21.60;11.10;;;0.20;99.90;;;;;;5091897;28;20247;-91
2021/12/27 03:28:35;;;;;;;18.20;13.07;;;0.30;99.90;;;;;;5092112;28;20284;-91
2021/12/27 03:31:04;;;;;;;13.47;11.17;;;0.30;99.90;;;;;;5092025;28;20235;-91
2021/12/27 03:33:33;;;;;;;14.53;11.73;;;0.30;99.90;;;;;;5092059;28;20230;-91
2021/12/27 03:36:03;;;;;;;20.70;12.83;;;0.30;99.90;;;;;;5092119;28;20259;-91
2021/12/27 03:38:35;;;;;;;14.93;11.87;;;0.30;99.90;;;;;;5092195;28;20231;-91
2021/12/27 03:41:07;;;;;;;15.50;12.13;;;0.30;99.90;;;;;;5091617;28;20224;-91
2021/12/27 03:43:36;;;;;;;15.20;12.17;;;0.30;99.90;;;;;;5091840;28;20231;-91
2021/12/27 03:46:04;;;;;;;13.97;11.43;;;0.30;99.90;;;;;;5092112;28;20263;-91
2021/12/27 03:48:32;;;;;;;18.13;11.87;;;0.30;99.90;;;;;;5092028;28;20231;-91
2021/12/27 03:51:02;;;;;;;14.43;11.57;;;0.30;99.90;;;;;;5091769;28;20296;-91
2021/12/27 03:53:31;;;;;;;14.47;12.20;;;0.30;99.90;;;;;;5093294;28;20303;-91
2021/12/27 03:55:59;;;;;;;15.70;12.97;;;0.40;99.90;;;;;;5095710;28;20228;-91
2021/12/27 03:58:32;;;;;;;17.17;13.47;;;0.40;99.90;;;;;;5095386;28;20287;-91
2021/12/27 04:01:14;;;;;;;14.87;12.57;;;0.40;99.90;;;;;;5094997;28;20208;-91
2021/12/27 04:03:48;;;;;;;15.80;12.57;;;0.40;99.90;;;;;;5095216;28;20221;-92
2021/12/27 04:06:18;;;;;;;15.90;13.13;;;0.40;99.90;;;;;;5095503;28;20251;-92
2021/12/27 04:08:47;;;;;;;15.00;12.57;;;0.40;99.90;;;;;;5094960;28;20232;-92
2021/12/27 04:11:16;;;;;;;15.20;11.93;;;0.40;99.90;;;;;;5095921;28;20263;-93
2021/12/27 04:13:46;;;;;;;15.13;12.23;;;0.40;99.90;;;;;;5095041;28;20308;-92
2021/12/27 04:16:14;;;;;;;15.67;12.07;;;0.40;99.90;;;;;;5095458;28;20316;-92
2021/12/27 04:18:42;;;;;;;17.77;12.27;;;0.50;99.90;;;;;;5095186;28;20209;-93
2021/12/27 04:21:11;;;;;;;17.77;13.83;;;0.40;99.90;;;;;;5095550;28;20300;-93
2021/12/27 04:23:41;;;;;;;17.03;13.63;;;0.40;99.90;;;;;;5094992;28;20224;-85
2021/12/27 04:26:09;;;;;;;18.30;13.80;;;0.40;99.90;;;;;;5094869;28;20248;-85
2021/12/27 04:28:38;;;;;;;15.27;12.10;;;0.40;99.90;;;;;;5094996;28;20208;-85
2021/12/27 04:31:08;;;;;;;17.73;13.17;;;0.50;99.90;;;;;;5094331;28;20204;-85
2021/12/27 04:33:36;;;;;;;13.97;12.50;;;0.50;99.90;;;;;;5094948;28;20220;-85
2021/12/27 04:36:05;;;;;;;20.73;13.23;;;0.50;99.90;;;;;;5094700;28;20307;-85
2021/12/27 04:38:33;;;;;;;18.23;13.80;;;0.50;99.90;;;;;;5094583;28;20228;-85
2021/12/27 04:41:04;;;;;;;14.83;12.23;;;0.50;99.90;;;;;;5094096;28;20228;-85
2021/12/27 04:43:32;;;;;;;18.53;13.00;;;0.50;99.90;;;;;;5095068;28;20227;-85
2021/12/27 04:46:00;;;;;;;22.27;12.77;;;0.50;99.90;;;;;;5094454;28;20315;-85
2021/12/27 04:48:30;;;;;;;14.43;11.57;;;0.50;99.90;;;;;;5095095;28;20213;-85
2021/12/27 04:50:58;;;;;;;21.10;12.47;;;0.50;99.90;;;;;;5093911;28;20244;-85
2021/12/27 04:53:27;;;;;;;31.27;14.13;;;0.50;99.90;;;;;;5094715;28;20232;-85
2021/12/27 04:55:55;;;;;;;14.60;12.50;;;0.50;99.90;;;;;;5094630;28;20271;-85
2021/12/27 04:58:24;;;;;;;18.83;12.30;;;0.50;99.90;;;;;;5094449;28;20216;-85
2021/12/27 05:00:54;;;;;;;18.13;13.57;;;0.40;99.90;;;;;;5093971;28;20231;-85
2021/12/27 05:03:22;;;;;;;16.80;12.63;;;0.40;99.90;;;;;;5094221;28;20208;-85
2021/12/27 05:05:52;;;;;;;17.37;13.13;;;0.50;99.90;;;;;;5094571;28;20289;-85
2021/12/27 05:08:21;;;;;;;22.87;14.80;;;0.50;99.90;;;;;;5094546;28;20231;-85
2021/12/27 05:10:49;;;;;;;23.63;14.57;;;0.40;99.90;;;;;;5093813;28;20247;-85
2021/12/27 05:13:18;;;;;;;15.80;12.80;;;0.40;99.90;;;;;;5093933;28;20303;-85
2021/12/27 05:15:48;;;;;;;17.63;13.83;;;0.40;99.90;;;;;;5094404;28;20292;-85
2021/12/27 05:18:16;;;;;;;17.63;13.87;;;0.40;99.90;;;;;;5093829;28;20287;-85
2021/12/27 05:20:45;;;;;;;17.37;13.43;;;0.40;99.90;;;;;;5093694;28;20243;-85
2021/12/27 05:23:14;;;;;;;14.13;11.77;;;0.40;99.90;;;;;;5094116;28;20295;-85
2021/12/27 05:25:43;;;;;;;18.67;13.73;;;0.40;99.90;;;;;;5093920;28;20252;-85
2021/12/27 05:28:11;;;;;;;19.43;13.57;;;0.40;99.90;;;;;;5093892;28;20254;-85
2021/12/27 05:30:41;;;;;;;16.83;13.93;;;0.40;99.90;;;;;;5092809;28;20292;-85
2021/12/27 05:33:10;;;;;;;14.40;12.03;;;0.40;99.90;;;;;;5093883;28;20220;-85
2021/12/27 05:35:38;;;;;;;23.20;15.23;;;0.40;99.90;;;;;;5093896;28;20255;-85
2021/12/27 05:38:07;;;;;;;18.07;13.93;;;0.40;99.90;;;;;;5093480;28;20204;-85
2021/12/27 05:40:37;;;;;;;17.57;13.13;;;0.40;99.90;;;;;;5092877;28;20227;-85
2021/12/27 05:43:06;;;;;;;14.87;11.93;;;0.40;99.90;;;;;;5093273;28;20239;-85
2021/12/27 05:45:36;;;;;;;15.43;12.50;;;0.40;99.90;;;;;;5093578;28;20288;-85
2021/12/27 05:48:05;;;;;;;15.43;12.57;;;0.40;99.90;;;;;;5093808;28;20281;-85
2021/12/27 05:50:35;;;;;;;18.60;12.83;;;0.40;99.90;;;;;;5092991;28;20229;-85
2021/12/27 05:53:04;;;;;;;20.17;14.13;;;0.40;99.90;;;;;;5093096;28;20287;-85
2021/12/27 05:55:32;;;;;;;14.07;12.40;;;0.50;99.90;;;;;;5092923;28;20220;-85
2021/12/27 05:58:03;;;;;;;14.03;12.50;;;0.50;99.90;;;;;;5093172;28;20235;-85
2021/12/27 06:00:32;;;;;;;14.57;11.80;;;0.50;99.90;;;;;;5093126;28;20288;-85
2021/12/27 06:03:01;;;;;;;25.23;14.10;;;0.50;99.90;;;;;;5093137;28;20234;-85
2021/12/27 06:05:29;;;;;;;17.73;12.03;;;0.50;99.90;;;;;;5092961;28;20296;-85
2021/12/27 06:07:58;;;;;;;10.97;9.80;;;0.50;99.90;;;;;;5093445;28;20303;-85
2021/12/27 06:10:26;;;;;;;13.10;10.57;;;0.50;99.90;;;;;;5092447;28;20287;-85
2021/12/27 06:12:55;;;;;;;18.90;11.37;;;0.50;99.90;;;;;;5093161;28;20236;-85
2021/12/27 06:15:24;;;;;;;14.33;10.43;;;0.50;99.90;;;;;;5092906;28;20287;-85
2021/12/27 06:17:53;;;;;;;12.87;9.57;;;0.50;99.90;;;;;;5092865;28;20287;-85
2021/12/27 06:20:21;;;;;;;11.73;10.30;;;0.50;99.90;;;;;;5092305;28;20295;-85
2021/12/27 06:22:53;;;;;;;10.73;9.37;;;0.50;99.90;;;;;;5093091;28;20236;-85
2021/12/27 06:25:21;;;;;;;13.10;10.03;;;0.50;99.90;;;;;;5093005;28;20281;-85
2021/12/27 06:27:50;;;;;;;11.37;9.83;;;0.50;99.90;;;;;;5092957;28;20232;-85
2021/12/27 06:30:19;;;;;;;10.77;9.27;;;0.60;99.90;;;;;;5092210;28;20235;-85
2021/12/27 06:32:49;;;;;;;12.60;9.40;;;0.60;99.90;;;;;;5092500;28;20228;-85
2021/12/27 06:35:18;;;;;;;13.47;10.00;;;0.60;99.90;;;;;;5092399;28;20311;-85
2021/12/27 06:37:47;;;;;;;10.27;8.97;;;0.60;99.90;;;;;;5092643;28;20287;-85
2021/12/27 06:40:17;;;;;;;13.13;9.63;;;0.60;99.90;;;;;;5092066;28;20212;-85
2021/12/27 06:42:46;;;;;;;10.97;9.83;;;0.60;99.90;;;;;;5092665;28;20196;-85
2021/12/27 06:45:15;;;;;;;11.70;9.13;;;0.60;99.90;;;;;;5092318;28;20309;-85
2021/12/27 06:47:44;;;;;;;12.47;9.50;;;0.60;99.90;;;;;;5092533;28;20291;-85
2021/12/27 06:50:14;;;;;;;11.03;9.93;;;0.70;99.90;;;;;;5091957;28;20263;-85
2021/12/27 06:52:43;;;;;;;10.83;9.37;;;0.70;99.90;;;;;;5092878;28;20212;-85
2021/12/27 06:55:12;;;;;;;10.93;9.07;;;0.70;99.90;;;;;;5092235;28;20319;-85
2021/12/27 06:57:41;;;;;;;11.80;10.13;;;0.70;99.90;;;;;;5092540;28;20298;-85
2021/12/27 07:00:12;;;;;;;13.50;9.10;;;0.70;99.90;;;;;;5091590;28;20236;-85
2021/12/27 07:02:41;;;;;;;9.50;8.50;;;0.70;99.90;;;;;;5092447;28;20235;-85
2021/12/27 07:05:10;;;;;;;12.10;8.83;;;0.70;99.90;;;;;;5092483;28;20247;-85
2021/12/27 07:07:41;;;;;;;10.73;8.00;;;0.70;99.90;;;;;;5092513;28;20286;-83
2021/12/27 07:10:12;;;;;;;11.03;8.97;;;0.70;99.90;;;;;;5092079;28;20212;-83
2021/12/27 07:12:40;;;;;;;8.87;7.60;;;0.70;99.90;;;;;;5092363;28;20272;-83
2021/12/27 07:15:10;;;;;;;10.47;8.97;;;0.80;99.90;;;;;;5092290;28;20221;-89
2021/12/27 07:17:38;;;;;;;12.27;8.50;;;0.80;99.90;;;;;;5092793;28;20269;-89
2021/12/27 07:20:08;;;;;;;11.07;8.00;;;0.80;99.90;;;;;;5091919;28;20208;-89
2021/12/27 07:22:37;;;;;;;8.00;7.03;;;0.80;99.90;;;;;;5092534;28;20223;-88
2021/12/27 07:25:08;;;;;;;8.27;7.27;;;0.70;99.90;;;;;;5092422;28;20258;-89
2021/12/27 07:27:36;;;;;;;9.80;7.90;;;0.80;99.90;;;;;;5093187;28;20232;-83
2021/12/27 07:30:07;;;;;;;8.30;7.43;;;0.80;99.90;;;;;;5095677;28;20262;-83
2021/12/27 07:32:36;;;;;;;14.27;8.27;;;0.80;99.90;;;;;;5095815;28;20220;-83
2021/12/27 07:35:06;;;;;;;7.70;6.97;;;0.80;99.90;;;;;;5095733;28;20315;-88
2021/12/27 07:37:34;;;;;;;8.17;7.37;;;0.80;99.90;;;;;;5095662;28;20204;-90
2021/12/27 07:40:03;;;;;;;8.37;7.40;;;0.90;99.90;;;;;;5094271;28;20220;-85
2021/12/27 07:42:34;;;;;;;8.03;7.00;;;0.90;99.90;;;;;;5095327;28;20204;-88
2021/12/27 07:45:09;;;;;;;10.47;8.13;;;0.90;99.90;;;;;;5096561;28;20235;-86
2021/12/27 07:47:39;;;;;;;10.07;7.47;;;0.90;99.90;;;;;;5095933;28;20197;-86
2021/12/27 07:50:10;;;;;;;7.83;7.13;;;1.00;99.90;;;;;;5093640;28;20224;-86
2021/12/27 07:52:39;;;;;;;6.97;6.20;;;1.00;99.90;;;;;;5088684;28;20197;-86
2021/12/27 07:55:08;;;;;;;8.53;7.27;;;1.00;99.90;;;;;;5076329;28;20233;-86
2021/12/27 07:57:39;;;;;;;8.03;7.23;;;1.10;99.90;;;;;;5092172;28;20235;-86
2021/12/27 08:00:09;;;;;;;9.00;7.27;;;1.20;99.90;;;;;;5095824;28;20221;-86
2021/12/27 08:02:38;;;;;;;8.70;7.53;;;1.20;99.90;;;;;;5096448;28;20204;-86
2021/12/27 08:05:07;;;;;;;8.87;7.97;;;1.30;99.90;;;;;;5096752;28;20251;-86
2021/12/27 08:07:36;;;;;;;8.70;7.80;;;1.30;99.90;;;;;;5096352;28;20251;-86
2021/12/27 08:10:06;;;;;;;10.50;7.67;;;1.30;99.90;;;;;;5102492;28;20204;-86
2021/12/27 08:12:35;;;;;;;9.23;7.43;;;1.40;99.90;;;;;;5116855;28;20211;-86
2021/12/27 08:15:06;;;;;;;7.43;6.70;;;1.40;99.90;;;;;;5115428;28;20291;-85
2021/12/27 08:18:24;;;;;;;7.57;6.87;;;1.40;99.90;;;;;;5111336;28;20268;-85
2021/12/27 08:20:52;;;;;;;7.60;6.83;;;1.50;99.90;;;;;;5095554;28;20208;-85
2021/12/27 08:23:27;;;;;;;9.10;7.70;;;1.50;99.90;;;;;;5095642;28;20204;-85
2021/12/27 08:26:08;;;;;;;10.93;8.07;;;1.50;99.90;;;;;;5091262;28;20304;-85
2021/12/27 08:28:41;;;;;;;10.97;8.83;;;1.50;99.90;;;;;;5114501;28;20203;-85
2021/12/27 08:31:24;;;;;;;13.87;8.43;;;1.50;99.90;;;;;;5115804;28;20227;-85
2021/12/27 08:33:53;;;;;;;9.87;8.13;;;1.60;99.90;;;;;;5075657;28;20205;-85
2021/12/27 08:36:23;;;;;;;11.10;7.93;;;1.60;99.90;;;;;;5080809;28;20244;-85
2021/12/27 08:38:52;;;;;;;14.70;9.03;;;1.60;99.90;;;;;;5095390;28;20291;-85
2021/12/27 08:41:27;;;;;;;11.93;8.27;;;1.60;99.90;;;;;;5094267;28;20201;-85
2021/12/27 08:43:57;;;;;;;8.67;7.80;;;1.50;99.90;;;;;;5095695;28;20200;-84
2021/12/27 08:46:27;;;;;;;15.50;9.10;;;1.50;99.90;;;;;;5095280;28;20313;-84
2021/12/27 08:48:56;;;;;;;9.80;8.17;;;1.50;99.90;;;;;;5094738;28;20215;-84
2021/12/27 08:51:25;;;;;;;8.33;7.53;;;1.50;99.90;;;;;;5094631;28;20192;-84
2021/12/27 08:53:54;;;;;;;11.20;9.23;;;1.50;99.90;;;;;;5075077;28;20208;-83
2021/12/27 08:56:22;;;;;;;13.43;9.20;;;1.60;99.90;;;;;;5074891;28;20233;-83
2021/12/27 08:58:51;;;;;;;14.63;8.37;;;1.60;99.90;;;;;;5078750;28;20193;-83
2021/12/27 09:01:19;;;;;;;12.83;8.07;;;1.60;99.90;;;;;;5081343;28;20208;-83
2021/12/27 09:03:49;;;;;;;8.53;7.57;;;1.70;99.90;;;;;;5074393;28;20549;-83
2021/12/27 09:06:18;;;;;;;10.00;8.77;;;1.80;99.90;;;;;;5075027;28;20229;-83
2021/12/27 09:08:46;;;;;;;11.23;8.73;;;1.80;99.90;;;;;;5074214;28;20225;-83
2021/12/27 09:11:45;;;;;;;11.87;9.17;;;1.70;99.90;;;;;;5089353;28;20287;-83
2021/12/27 09:14:14;;;;;;;10.80;8.80;;;1.90;99.90;;;;;;5094621;28;20243;-82
2021/12/27 09:16:53;;;;;;;9.67;8.67;;;2.00;99.90;;;;;;5093932;28;20226;-82
2021/12/27 09:19:33;;;;;;;9.17;8.27;;;2.10;99.90;;;;;;5094105;28;20204;-82
2021/12/27 09:22:02;;;;;;;7.97;7.27;;;2.20;99.90;;;;;;5094551;28;20231;-82
2021/12/27 09:24:44;;;;;;;9.97;8.23;;;2.20;99.90;;;;;;5094309;28;20295;-82
2021/12/27 09:27:22;;;;;;;10.70;8.77;;;2.30;99.90;;;;;;5090933;28;20217;-82
2021/12/27 09:29:51;;;;;;;10.60;8.83;;;2.40;99.90;;;;;;5073944;28;20235;-82
2021/12/27 09:32:22;;;;;;;11.97;9.53;;;2.40;99.90;;;;;;5074289;28;20205;-83
2021/12/27 09:34:51;;;;;;;9.93;8.67;;;2.40;99.90;;;;;;5074367;28;20307;-83
2021/12/27 09:37:20;;;;;;;9.25;8.32;;;2.50;99.90;;;;;;5074135;28;20264;-83
2021/12/27 09:39:53;;;;;;;27.37;9.30;;;2.50;99.90;;;;;;5080730;28;20224;-82
2021/12/27 09:42:22;;;;;;;10.52;8.23;;;2.50;99.90;;;;;;5115021;28;20208;-82
2021/12/27 09:44:53;;;;;;;15.43;9.48;;;2.60;99.90;;;;;;5114583;28;20303;-82
2021/12/27 09:47:21;;;;;;;8.40;7.53;;;2.70;99.90;;;;;;5103308;28;20197;-82
2021/12/27 09:50:13;;;;;;;11.18;9.40;;;2.70;99.90;;;;;;5093586;28;20283;-83
2021/12/27 09:52:41;;;;;;;15.63;9.73;;;2.80;99.90;;;;;;5093183;28;20245;-83
2021/12/27 09:55:11;;;;;;;11.10;8.70;;;2.80;99.90;;;;;;5094072;28;20275;-83
2021/12/27 09:57:39;;;;;;;11.47;8.73;;;2.70;99.90;;;;;;5073598;28;20197;-83
2021/12/27 10:00:09;;;;;;;8.80;7.97;;;2.60;99.90;;;;;;5073694;28;20304;-83
2021/12/27 10:02:39;;;;;;;9.53;7.73;;;2.60;99.90;;;;;;5073532;28;20225;-85
2021/12/27 10:05:24;;;;;;;16.77;8.77;;;2.40;99.90;;;;;;5073881;28;20237;-84
2021/12/27 10:07:53;;;;;;;10.88;8.82;;;2.50;99.90;;;;;;5079549;28;20200;-84
2021/12/27 10:10:32;;;;;;;17.30;7.95;;;2.50;99.90;;;;;;5089414;28;20203;-83
2021/12/27 10:13:06;;;;;;;15.05;8.93;;;2.50;99.90;;;;;;5093480;28;20228;-83
2021/12/27 10:15:40;;;;;;;9.83;8.10;;;2.40;99.90;;;;;;5079627;28;20220;-83
2021/12/27 10:18:11;;;;;;;9.87;7.43;;;2.30;99.90;;;;;;5093731;28;20257;-83
2021/12/27 10:20:42;;;;;;;10.90;8.83;;;2.30;99.90;;;;;;5092817;28;20216;-84
2021/12/27 10:23:12;;;;;;;11.53;9.63;;;2.30;99.90;;;;;;5093524;28;20200;-84
2021/12/27 10:25:43;;;;;;;10.13;8.88;;;2.40;99.90;;;;;;5093047;28;20232;-84
2021/12/27 10:28:12;;;;;;;8.45;7.47;;;2.50;99.90;;;;;;5093728;28;20200;-84
2021/12/27 10:30:45;;;;;;;16.73;9.15;;;2.60;99.90;;;;;;5088910;28;20192;-84
2021/12/27 10:33:25;;;;;;;9.70;7.95;;;2.70;99.90;;;;;;5073293;28;20238;-84
2021/12/27 10:35:57;;;;;;;8.53;7.50;;;2.70;99.90;;;;;;5079115;28;20287;-84
2021/12/27 10:38:27;;;;;;;10.70;8.27;;;2.70;99.90;;;;;;5093668;28;20196;-84
2021/12/27 10:40:57;;;;;;;12.02;8.30;;;2.60;99.90;;;;;;5092987;28;20216;-89
2021/12/27 10:43:40;;;;;;;12.82;9.95;;;2.60;99.90;;;;;;5080667;28;20201;-88
2021/12/27 10:46:10;;;;;;;10.83;9.47;;;2.60;99.90;;;;;;5073334;28;20227;-89
2021/12/27 10:48:41;;;;;;;14.17;9.63;;;2.70;99.90;;;;;;5072573;28;20208;-85
2021/12/27 10:51:11;;;;;;;9.80;8.73;;;2.70;99.90;;;;;;5074546;28;20205;-84
2021/12/27 10:53:45;;;;;;;9.97;8.23;;;2.70;99.90;;;;;;5079013;28;20249;-84
2021/12/27 10:56:13;;;;;;;13.63;9.63;;;2.70;99.90;;;;;;5093135;28;20228;-84
2021/12/27 10:58:48;;;;;;;9.68;8.63;;;2.70;99.90;;;;;;5086889;28;20193;-85
2021/12/27 11:01:19;;;;;;;12.93;9.10;;;2.60;99.90;;;;;;5072569;28;20196;-84
2021/12/27 11:03:50;;;;;;;12.20;8.67;;;2.60;99.90;;;;;;5076894;28;20278;-85
2021/12/27 11:06:22;;;;;;;13.67;9.97;;;2.50;99.90;;;;;;5076942;28;20209;-85
2021/12/27 11:08:51;;;;;;;11.90;8.93;;;2.60;99.90;;;;;;5077845;28;20260;-85
2021/12/27 11:11:21;;;;;;;10.23;8.87;;;2.60;99.90;;;;;;5083903;28;20218;-85
2021/12/27 11:13:52;;;;;;;10.60;8.70;;;2.60;99.90;;;;;;5095809;28;20204;-88
2021/12/27 11:16:21;;;;;;;9.57;8.13;;;2.50;99.90;;;;;;5097193;28;20220;-85
2021/12/27 11:18:50;;;;;;;12.93;8.93;;;2.50;99.90;;;;;;5096537;28;20208;-84
2021/12/27 11:21:22;;;;;;;12.57;9.30;;;2.60;99.90;;;;;;5098006;28;20204;-85
2021/12/27 11:23:53;;;;;;;8.90;7.95;;;2.60;99.90;;;;;;5097306;28;20204;-86
2021/12/27 11:26:30;;;;;;;8.05;7.25;;;2.70;99.90;;;;;;5096786;28;20219;-86
2021/12/27 11:29:13;;;;;;;11.75;9.85;;;2.80;99.90;;;;;;5096252;28;20235;-85
2021/12/27 11:31:42;;;;;;;12.60;8.93;;;2.90;99.90;;;;;;5097805;28;20228;-86
2021/12/27 11:34:13;;;;;;;9.57;8.33;;;3.00;99.90;;;;;;5097072;28;20283;-85
2021/12/27 11:36:47;;;;;;;12.83;8.73;;;3.00;99.90;;;;;;5097103;28;20235;-88
2021/12/27 11:39:22;;;;;;;11.05;8.65;;;3.10;99.90;;;;;;5079358;28;20242;-86
2021/12/27 11:42:03;;;;;;;14.00;10.88;;;3.10;99.90;;;;;;5076668;28;20205;-86
2021/12/27 11:44:37;;;;;;;10.13;8.10;;;3.30;99.90;;;;;;5076638;28;20204;-86
2021/12/27 11:47:06;;;;;;;12.98;9.30;;;3.30;99.90;;;;;;5074671;28;20220;-86
2021/12/27 11:49:38;;;;;;;10.02;8.95;;;3.50;99.90;;;;;;5091549;28;20264;-86
2021/12/27 11:52:17;;;;;;;14.77;10.35;;;3.70;99.90;;;;;;5096758;28;20223;-86
2021/12/27 11:54:55;;;;;;;13.32;10.07;;;3.80;99.90;;;;;;5095405;28;20224;-86
2021/12/27 11:57:50;;;;;;;11.68;9.20;;;3.90;99.90;;;;;;5095309;28;20234;-86
2021/12/27 12:00:39;;;;;;;9.07;8.18;;;4.00;99.90;;;;;;5095250;28;20204;-86
2021/12/27 12:03:20;;;;;;;10.48;9.25;;;3.90;99.90;;;;;;5095367;28;20206;-86
2021/12/27 12:05:50;;;;;;;19.13;9.30;;;4.10;99.90;;;;;;5095312;28;20224;-86
2021/12/27 12:08:32;;;;;;;14.30;9.90;;;4.20;99.90;;;;;;5095404;28;20200;-86
2021/12/27 12:11:06;;;;;;;11.27;9.63;;;4.40;99.90;;;;;;5094835;28;20236;-86
2021/12/27 12:13:41;;;;;;;15.40;10.68;;;4.70;99.90;;;;;;5094357;28;20204;-86
2021/12/27 12:16:11;;;;;;;13.70;10.00;;;4.70;99.90;;;;;;5095165;28;20240;-86
2021/12/27 12:18:44;;;;;;;12.77;9.63;;;4.80;99.90;;;;;;5094531;28;20231;-86
2021/12/27 12:21:39;;;;;;;14.68;9.75;;;4.90;99.90;;;;;;5095234;28;20283;-86
2021/12/27 12:24:20;;;;;;;13.45;10.65;;;4.90;99.90;;;;;;5094776;28;20299;-85
2021/12/27 12:26:54;;;;;;;14.93;9.98;;;5.00;99.90;;;;;;5094948;28;20220;-85
2021/12/27 12:29:29;;;;;;;12.73;9.48;;;4.90;99.90;;;;;;5094480;28;20207;-85
2021/12/27 12:31:59;;;;;;;11.35;8.93;;;4.90;99.90;;;;;;5094687;28;20208;-85
2021/12/27 12:34:28;;;;;;;16.10;10.40;;;4.90;99.90;;;;;;5094506;28;20295;-85
2021/12/27 12:37:00;;;;;;;14.57;10.18;;;5.00;99.90;;;;;;5094872;28;20308;-85
2021/12/27 12:39:39;;;;;;;10.30;9.18;;;5.20;99.90;;;;;;5094178;28;20238;-85
2021/12/27 12:42:10;;;;;;;14.60;9.32;;;5.30;99.90;;;;;;5093981;28;20204;-86
2021/12/27 12:44:51;;;;;;;16.92;10.65;;;5.50;99.90;;;;;;5094667;28;20228;-85
2021/12/27 12:47:21;;;;;;;11.38;10.13;;;5.60;99.90;;;;;;5094293;28;20192;-85
2021/12/27 12:49:50;;;;;;;12.85;9.25;;;5.80;99.90;;;;;;5093904;28;20250;-85
2021/12/27 12:52:19;;;;;;;15.38;10.77;;;6.00;99.90;;;;;;5094337;28;20265;-86
2021/12/27 12:54:50;;;;;;;11.20;9.48;;;6.20;99.90;;;;;;5094515;28;20244;-86
2021/12/27 12:57:20;;;;;;;13.88;10.77;;;6.30;99.90;;;;;;5094394;28;20311;-85
2021/12/27 12:59:53;;;;;;;16.50;10.02;;;6.40;99.90;;;;;;5093879;28;20200;-85
2021/12/27 13:02:25;;;;;;;13.88;9.77;;;6.50;99.90;;;;;;5094243;28;20208;-85
2021/12/27 13:04:57;;;;;;;10.80;9.38;;;6.50;99.90;;;;;;5094314;28;20239;-84